createdAt,value
2017-11-16T00:01:49.497Z,24.60
2017-11-16T00:07:17.717Z,20.90
2017-11-16T00:12:50.099Z,23.53
2017-11-16T00:18:18.249Z,18.43
2017-11-16T00:23:46.410Z,19.97
2017-11-16T00:29:14.550Z,21.00
2017-11-16T00:34:43.468Z,21.07
2017-11-16T00:40:18.809Z,18.60
2017-11-16T00:45:47.520Z,18.60
2017-11-16T00:51:15.771Z,19.50
2017-11-16T00:56:45.898Z,21.20
2017-11-16T01:02:14.044Z,21.53
2017-11-16T01:07:42.193Z,20.40
2017-11-16T01:13:10.355Z,20.10
2017-11-16T01:18:39.261Z,19.47
2017-11-16T01:24:10.486Z,19.30
2017-11-16T01:29:38.667Z,19.33
2017-11-16T01:35:06.821Z,18.10
2017-11-16T01:40:35.227Z,17.40
2017-11-16T01:46:08.475Z,17.13
2017-11-16T01:51:37.638Z,18.00
2017-11-16T01:57:05.779Z,16.93
2017-11-16T02:02:41.813Z,17.50
2017-11-16T02:08:10.920Z,16.07
2017-11-16T02:13:39.276Z,18.50
2017-11-16T02:19:20.251Z,16.03
2017-11-16T02:24:48.411Z,15.97
2017-11-16T02:30:16.777Z,17.60
2017-11-16T02:35:53.375Z,18.30
2017-11-16T02:41:21.506Z,18.20
2017-11-16T02:46:50.418Z,19.50
2017-11-16T02:52:25.719Z,20.93
2017-11-16T02:57:53.876Z,16.30
2017-11-16T03:03:22.057Z,18.90
2017-11-16T03:08:56.934Z,21.20
2017-11-16T03:14:25.150Z,21.07
2017-11-16T03:19:56.485Z,17.23
2017-11-16T03:25:24.641Z,16.30
2017-11-16T03:30:52.813Z,19.83
2017-11-16T03:36:21.801Z,19.57
2017-11-16T03:41:49.969Z,18.10
2017-11-16T03:47:18.886Z,20.37
2017-11-16T03:52:47.035Z,17.77
2017-11-16T03:58:15.952Z,19.20
2017-11-16T04:03:57.743Z,20.40
2017-11-16T04:09:25.919Z,19.37
2017-11-16T04:14:55.059Z,20.40
2017-11-16T04:20:23.237Z,22.13
2017-11-16T04:25:51.386Z,19.70
2017-11-16T04:31:29.859Z,19.70
2017-11-16T04:36:58.012Z,18.93
2017-11-16T04:42:26.212Z,20.73
2017-11-16T04:47:56.085Z,17.80
2017-11-16T04:53:25.130Z,16.07
2017-11-16T04:58:53.281Z,15.83
2017-11-16T05:04:21.459Z,14.67
2017-11-16T05:09:49.661Z,18.20
2017-11-16T05:15:17.813Z,17.00
2017-11-16T05:20:46.745Z,18.67
2017-11-16T05:26:14.893Z,20.73
2017-11-16T05:31:43.083Z,20.70
2017-11-16T05:37:17.349Z,17.70
2017-11-16T05:42:45.538Z,18.87
2017-11-16T05:48:13.892Z,17.67
2017-11-16T05:53:42.051Z,17.73
2017-11-16T05:59:10.218Z,16.60
2017-11-16T06:04:38.364Z,21.20
2017-11-16T06:10:06.503Z,19.70
2017-11-16T06:15:34.662Z,17.63
2017-11-16T06:21:02.829Z,18.37
2017-11-16T06:26:30.974Z,19.60
2017-11-16T06:31:59.156Z,18.53
2017-11-16T06:37:27.308Z,16.30
2017-11-16T06:42:55.469Z,17.97
2017-11-16T06:48:23.604Z,22.43
2017-11-16T06:53:51.753Z,17.67
2017-11-16T06:59:19.954Z,17.80
2017-11-16T07:04:48.122Z,18.07
2017-11-16T07:10:16.285Z,17.57
2017-11-16T07:15:44.429Z,19.07
2017-11-16T07:21:12.574Z,16.47
2017-11-16T07:26:40.726Z,18.90
2017-11-16T07:32:08.885Z,17.97
2017-11-16T07:37:37.043Z,18.73
2017-11-16T07:43:05.954Z,20.07
2017-11-16T07:48:35.016Z,17.07
2017-11-16T07:54:03.956Z,18.43
2017-11-16T07:59:32.880Z,19.77
2017-11-16T08:05:01.024Z,17.73
2017-11-16T08:10:29.948Z,19.73
2017-11-16T08:15:58.127Z,17.43
2017-11-16T08:21:26.297Z,16.40
2017-11-16T08:26:55.204Z,15.83
2017-11-16T08:32:23.360Z,15.40
2017-11-16T08:37:51.536Z,16.13
2017-11-16T08:43:19.678Z,15.37
2017-11-16T08:48:47.832Z,14.90
2017-11-16T08:54:16.002Z,15.00
2017-11-16T08:59:44.166Z,14.60
2017-11-16T09:05:12.423Z,14.27
2017-11-16T09:10:40.594Z,14.23
2017-11-16T09:16:09.504Z,14.60
2017-11-16T09:21:37.714Z,14.97
2017-11-16T09:27:05.889Z,13.83
2017-11-16T09:32:34.029Z,14.03
2017-11-16T09:38:05.204Z,14.23
2017-11-16T09:43:33.355Z,14.43
2017-11-16T09:49:01.512Z,14.50
2017-11-16T09:54:29.678Z,13.63
2017-11-16T09:59:57.908Z,13.53
2017-11-16T10:05:26.196Z,14.13
2017-11-16T10:10:59.681Z,15.03
2017-11-16T10:16:27.834Z,13.90
2017-11-16T10:21:58.079Z,17.70
2017-11-16T10:27:26.236Z,13.80
2017-11-16T10:32:54.432Z,14.27
2017-11-16T10:38:22.580Z,16.33
2017-11-16T10:43:52.497Z,16.63
2017-11-16T10:49:20.653Z,13.20
2017-11-16T10:54:49.568Z,15.07
2017-11-16T11:00:17.729Z,12.10
2017-11-16T11:05:45.887Z,15.20
2017-11-16T11:11:14.066Z,12.60
2017-11-16T11:16:42.221Z,13.50
2017-11-16T11:22:10.381Z,14.37
2017-11-16T11:27:38.539Z,15.33
2017-11-16T11:33:06.714Z,15.10
2017-11-16T11:38:34.858Z,15.00
2017-11-16T11:44:03.777Z,14.90
2017-11-16T11:49:32.826Z,14.20
2017-11-16T11:55:01.018Z,13.60
2017-11-16T12:00:29.158Z,15.47
2017-11-16T12:05:57.317Z,16.00
2017-11-16T12:11:27.635Z,12.03
2017-11-16T12:16:55.794Z,12.83
2017-11-16T12:22:23.940Z,12.10
2017-11-16T12:27:56.145Z,11.47
2017-11-16T12:33:24.368Z,13.23
2017-11-16T12:38:54.514Z,13.50
2017-11-16T12:44:22.649Z,12.60
2017-11-16T12:49:50.848Z,13.60
2017-11-16T12:55:19.776Z,10.70
2017-11-16T13:00:48.674Z,12.83
2017-11-16T13:06:26.770Z,12.57
2017-11-16T13:11:55.681Z,11.60
2017-11-16T13:17:25.776Z,13.53
2017-11-16T13:22:54.703Z,12.80
2017-11-16T13:28:23.599Z,13.50
2017-11-16T13:33:51.745Z,13.37
2017-11-16T13:39:19.887Z,12.17
2017-11-16T13:44:48.796Z,13.87
2017-11-16T13:50:16.932Z,15.60
2017-11-16T13:55:45.068Z,14.60
2017-11-16T14:01:13.985Z,15.67
2017-11-16T14:06:42.129Z,18.30
2017-11-16T14:12:10.284Z,16.40
2017-11-16T14:17:38.457Z,16.10
2017-11-16T14:23:06.611Z,15.60
2017-11-16T14:28:34.751Z,14.40
2017-11-16T14:34:02.899Z,18.10
2017-11-16T14:39:32.973Z,14.90
2017-11-16T14:45:01.160Z,15.90
2017-11-16T14:50:29.686Z,15.50
2017-11-16T14:55:58.147Z,14.47
2017-11-16T15:01:26.332Z,16.70
2017-11-16T15:06:54.481Z,13.47
2017-11-16T15:12:22.638Z,15.50
2017-11-16T15:17:50.794Z,17.00
2017-11-16T15:23:18.952Z,16.07
2017-11-16T15:28:47.870Z,15.27
2017-11-16T15:34:16.022Z,17.80
2017-11-16T15:39:44.168Z,18.10
2017-11-16T15:45:12.335Z,16.40
2017-11-16T15:50:40.476Z,18.30
2017-11-16T15:56:09.410Z,17.00
2017-11-16T16:01:38.353Z,15.97
2017-11-16T16:07:06.497Z,18.53
2017-11-16T16:12:34.646Z,15.23
2017-11-16T16:18:02.780Z,13.10
2017-11-16T16:23:30.940Z,14.00
2017-11-16T16:28:59.214Z,16.07
2017-11-16T16:34:27.521Z,14.57
2017-11-16T16:39:55.738Z,15.30
2017-11-16T16:45:23.949Z,15.90
2017-11-16T16:50:52.158Z,14.10
2017-11-16T16:56:20.358Z,16.80
2017-11-16T17:01:49.323Z,14.93
2017-11-16T17:07:17.516Z,16.07
2017-11-16T17:12:45.695Z,14.20
2017-11-16T17:18:13.909Z,18.17
2017-11-16T17:23:42.108Z,19.47
2017-11-16T17:29:10.405Z,12.97
2017-11-16T17:34:38.614Z,13.87
2017-11-16T17:40:13.504Z,10.57
2017-11-16T17:45:42.688Z,13.20
2017-11-16T17:51:15.611Z,12.47
2017-11-16T17:56:50.484Z,12.73
2017-11-16T18:02:18.691Z,11.77
2017-11-16T18:07:52.165Z,15.07
2017-11-16T18:13:20.460Z,14.00
2017-11-16T18:18:54.345Z,14.33
2017-11-16T18:24:29.605Z,12.30
2017-11-16T18:30:00.814Z,12.40
2017-11-16T18:35:31.387Z,13.57
2017-11-16T18:40:59.663Z,13.57
2017-11-16T18:46:29.573Z,13.90
2017-11-16T18:51:57.800Z,14.10
2017-11-16T18:57:26.042Z,13.73
2017-11-16T19:03:24.483Z,13.27
2017-11-16T19:08:52.694Z,15.83
2017-11-16T19:14:20.933Z,14.73
2017-11-16T19:19:53.875Z,13.17
2017-11-16T19:25:22.089Z,15.40
2017-11-16T19:30:54.523Z,17.37
2017-11-16T19:36:23.214Z,14.40
2017-11-16T19:41:51.824Z,15.20
2017-11-16T19:47:20.149Z,14.23
2017-11-16T19:52:48.477Z,15.30
2017-11-16T19:58:16.718Z,15.00
2017-11-16T20:03:44.974Z,15.20
2017-11-16T20:09:13.954Z,17.73
2017-11-16T20:14:42.183Z,14.73
2017-11-16T20:20:14.108Z,16.90
2017-11-16T20:25:43.249Z,15.73
2017-11-16T20:31:11.445Z,14.60
2017-11-16T20:37:01.172Z,16.17
2017-11-16T20:42:36.008Z,18.03
2017-11-16T20:54:32.028Z,17.67
2017-11-16T21:00:01.152Z,14.90
2017-11-16T21:05:32.766Z,12.10
2017-11-16T21:11:01.014Z,16.70
2017-11-16T21:16:30.179Z,17.00
2017-11-16T21:21:58.447Z,18.40
2017-11-16T21:27:48.725Z,19.20
2017-11-16T21:33:30.956Z,19.23
2017-11-16T21:39:00.018Z,18.03
2017-11-16T21:44:31.469Z,14.27
2017-11-16T21:49:59.842Z,17.13
2017-11-16T21:55:34.405Z,15.87
2017-11-16T22:01:07.425Z,15.57
2017-11-16T22:06:35.665Z,17.83
2017-11-16T22:12:18.566Z,16.47
2017-11-16T22:17:46.822Z,17.40
2017-11-16T22:23:15.020Z,15.93
2017-11-16T22:28:43.237Z,13.30
2017-11-16T22:34:13.451Z,17.37
2017-11-16T22:39:41.645Z,15.07
2017-11-16T22:45:16.594Z,15.27
2017-11-16T22:50:44.796Z,15.90
2017-11-16T22:56:15.032Z,16.73
2017-11-16T23:01:45.388Z,12.80
2017-11-16T23:07:13.626Z,15.20
2017-11-16T23:12:41.827Z,12.27
2017-11-16T23:18:13.243Z,15.60
2017-11-16T23:23:41.473Z,14.77
2017-11-16T23:29:20.908Z,9.67
2017-11-16T23:34:49.111Z,12.17
2017-11-16T23:40:17.329Z,11.20
2017-11-16T23:45:45.531Z,13.47
2017-11-16T23:51:14.554Z,13.00
2017-11-16T23:56:48.595Z,15.03
